Time;durP1;ratioP1;P1;durP2;ratioP2;P2;SDS_P1;SDS_P2;PMS_P1;PMS_P2;Temp;Humidity;BMP_temperature;BMP_pressure;BME280_temperature;BME280_humidity;BME280_pressure;Samples;Min_cycle;Max_cycle;Signal;HPM_P1;HPM_P2
2021/07/06 00:02:16;;;;;;;4.60;1.93;;;16.70;99.90;;;;;;5033986;28;20206;-83
2021/07/06 00:04:42;;;;;;;3.80;1.93;;;16.60;99.90;;;;;;5034360;28;20418;-83
2021/07/06 00:07:08;;;;;;;2.80;2.60;;;16.70;99.90;;;;;;5034317;28;20415;-84
2021/07/06 00:09:33;;;;;;;2.37;1.77;;;16.60;99.90;;;;;;5034307;28;20262;-84
2021/07/06 00:11:59;;;;;;;2.60;2.17;;;16.70;99.90;;;;;;5034224;28;20635;-84
2021/07/06 00:14:24;;;;;;;2.50;1.80;;;16.70;99.90;;;;;;5034005;28;20186;-84
2021/07/06 00:16:50;;;;;;;3.40;2.30;;;16.70;99.90;;;;;;5034142;28;20183;-84
2021/07/06 00:19:16;;;;;;;2.30;2.10;;;16.80;99.90;;;;;;5033699;28;20176;-84
2021/07/06 00:21:41;;;;;;;5.23;2.50;;;16.80;99.90;;;;;;5033963;28;20186;-84
2021/07/06 00:24:07;;;;;;;3.73;1.90;;;16.80;99.90;;;;;;5033996;28;20588;-84
2021/07/06 00:26:33;;;;;;;5.30;1.73;;;16.80;99.90;;;;;;5033898;28;20249;-84
2021/07/06 00:28:59;;;;;;;4.77;1.90;;;16.80;99.90;;;;;;5033682;28;20228;-84
2021/07/06 00:31:24;;;;;;;1.90;1.63;;;16.80;99.90;;;;;;5033866;28;20410;-83
2021/07/06 00:33:52;;;;;;;3.37;2.07;;;16.90;99.90;;;;;;5033407;28;20198;-84
2021/07/06 00:36:17;;;;;;;2.10;1.70;;;16.90;99.90;;;;;;5033758;28;20242;-84
2021/07/06 00:38:43;;;;;;;3.40;2.00;;;16.80;99.90;;;;;;5033753;28;20438;-84
2021/07/06 00:41:09;;;;;;;4.93;2.27;;;16.90;99.90;;;;;;5033662;28;20171;-84
2021/07/06 00:43:36;;;;;;;1.40;1.20;;;16.90;99.90;;;;;;5033557;28;20260;-84
2021/07/06 00:46:04;;;;;;;2.40;1.43;;;16.80;99.90;;;;;;5033607;28;20218;-84
2021/07/06 00:48:30;;;;;;;1.57;1.20;;;16.90;99.90;;;;;;5031996;28;20951;-84
2021/07/06 00:50:56;;;;;;;3.30;1.57;;;16.90;99.90;;;;;;5032239;28;20453;-84
2021/07/06 00:53:23;;;;;;;2.30;1.23;;;17.00;99.90;;;;;;5032277;28;20269;-84
2021/07/06 00:55:51;;;;;;;5.27;1.43;;;16.90;99.90;;;;;;5033402;28;20825;-84
2021/07/06 00:58:17;;;;;;;2.80;1.67;;;17.00;99.90;;;;;;5033442;28;20410;-84
2021/07/06 01:00:43;;;;;;;3.00;1.50;;;17.00;99.90;;;;;;5032083;28;20421;-84
2021/07/06 01:03:10;;;;;;;2.93;1.43;;;17.00;99.90;;;;;;5031585;28;20523;-85
2021/07/06 01:05:36;;;;;;;2.70;1.40;;;17.00;99.90;;;;;;5033295;28;20782;-84
2021/07/06 01:08:02;;;;;;;4.20;1.70;;;17.00;99.90;;;;;;5033250;28;20468;-84
2021/07/06 01:10:28;;;;;;;5.00;1.77;;;17.00;99.90;;;;;;5031890;28;20583;-85
2021/07/06 01:12:54;;;;;;;2.63;0.93;;;17.00;99.90;;;;;;5031968;28;20923;-85
2021/07/06 01:15:26;;;;;;;2.43;0.70;;;17.10;99.90;;;;;;5033135;28;20178;-85
2021/07/06 01:18:07;;;;;;;3.00;1.90;;;17.00;99.90;;;;;;5032814;28;20211;-86
2021/07/06 01:20:37;;;;;;;4.17;1.33;;;17.00;99.90;;;;;;5033141;28;20411;-84
2021/07/06 01:23:05;;;;;;;2.33;1.80;;;17.00;99.90;;;;;;5033036;28;20470;-84
2021/07/06 01:25:32;;;;;;;2.60;1.77;;;17.00;99.90;;;;;;5032540;28;20459;-85
2021/07/06 01:27:58;;;;;;;1.93;1.43;;;17.00;99.90;;;;;;5032740;28;20466;-85
2021/07/06 01:30:24;;;;;;;2.47;2.23;;;17.00;99.90;;;;;;5032973;28;20421;-86
2021/07/06 01:32:49;;;;;;;2.00;1.10;;;17.00;99.90;;;;;;5032625;28;20212;-87
2021/07/06 01:35:17;;;;;;;1.90;1.47;;;17.10;99.90;;;;;;5032934;28;20258;-85
2021/07/06 01:37:51;;;;;;;3.70;1.97;;;17.00;99.90;;;;;;5031685;28;20171;-85
2021/07/06 01:40:19;;;;;;;2.03;1.27;;;17.00;99.90;;;;;;5033046;28;20806;-85
2021/07/06 01:42:45;;;;;;;3.10;1.37;;;17.00;99.90;;;;;;5032797;28;21052;-85
2021/07/06 01:45:16;;;;;;;2.27;1.30;;;17.00;99.90;;;;;;5032900;28;20501;-84
2021/07/06 01:47:45;;;;;;;3.10;1.00;;;17.00;99.90;;;;;;5031241;28;20481;-86
2021/07/06 01:50:16;;;;;;;1.77;1.37;;;17.00;99.90;;;;;;5032860;28;20533;-85
2021/07/06 01:52:50;;;;;;;3.47;1.67;;;17.00;99.90;;;;;;5033009;28;20414;-84
2021/07/06 01:55:21;;;;;;;3.57;2.50;;;17.00;99.90;;;;;;5033090;28;20759;-84
2021/07/06 01:57:48;;;;;;;2.03;1.20;;;17.10;99.90;;;;;;5033035;28;20406;-85
2021/07/06 02:00:18;;;;;;;1.90;1.70;;;17.10;99.90;;;;;;5034924;28;20417;-84
2021/07/06 02:02:44;;;;;;;2.07;1.87;;;17.10;99.90;;;;;;5039697;28;21173;-87
2021/07/06 02:05:17;;;;;;;3.87;1.70;;;17.20;99.90;;;;;;5032996;28;20407;-86
2021/07/06 02:07:43;;;;;;;2.90;1.83;;;17.20;99.90;;;;;;5031715;28;21027;-85
2021/07/06 02:10:09;;;;;;;2.03;1.83;;;17.10;99.90;;;;;;5032987;28;20414;-85
2021/07/06 02:12:35;;;;;;;3.43;1.60;;;17.20;99.90;;;;;;5032876;28;20947;-85
2021/07/06 02:15:02;;;;;;;3.77;1.53;;;17.10;99.90;;;;;;5032752;28;20484;-86
2021/07/06 02:17:28;;;;;;;2.20;1.50;;;17.20;99.90;;;;;;5032295;28;20975;-86
2021/07/06 02:19:54;;;;;;;4.40;1.67;;;17.20;99.90;;;;;;5032591;28;20412;-87
2021/07/06 02:22:20;;;;;;;2.57;1.23;;;17.20;99.90;;;;;;5031201;28;20504;-87
2021/07/06 02:24:46;;;;;;;3.77;1.93;;;17.20;99.90;;;;;;5031220;28;20459;-85
2021/07/06 02:27:11;;;;;;;1.90;1.40;;;17.10;99.90;;;;;;5032349;28;20705;-86
2021/07/06 02:29:38;;;;;;;3.70;1.57;;;17.20;99.90;;;;;;5032692;28;20178;-86
2021/07/06 02:32:04;;;;;;;4.40;1.70;;;17.10;99.90;;;;;;5025390;28;20348;-86
2021/07/06 02:34:30;;;;;;;1.70;1.40;;;17.10;99.90;;;;;;5031180;28;20422;-86
2021/07/06 02:36:56;;;;;;;3.43;2.17;;;17.10;99.90;;;;;;5033529;28;20445;-85
2021/07/06 02:39:21;;;;;;;4.70;2.00;;;17.10;99.90;;;;;;5034686;28;20192;-87
2021/07/06 02:41:48;;;;;;;3.70;1.87;;;17.00;99.90;;;;;;5034529;28;20187;-85
2021/07/06 02:44:13;;;;;;;3.60;1.83;;;17.00;99.90;;;;;;5035873;28;20652;-86
2021/07/06 02:46:39;;;;;;;3.10;2.27;;;17.00;99.90;;;;;;5034228;28;20427;-85
2021/07/06 02:49:04;;;;;;;2.47;2.07;;;17.00;99.90;;;;;;5035440;28;20198;-85
2021/07/06 02:51:30;;;;;;;2.83;2.10;;;17.00;99.90;;;;;;5035252;28;20183;-85
2021/07/06 02:53:56;;;;;;;5.90;2.83;;;17.00;99.90;;;;;;5035575;28;20178;-86
2021/07/06 02:56:21;;;;;;;3.20;2.20;;;17.00;99.90;;;;;;5034370;28;20172;-85
2021/07/06 02:58:47;;;;;;;3.37;2.00;;;17.00;99.90;;;;;;5035601;28;20172;-84
2021/07/06 03:01:12;;;;;;;5.20;2.47;;;17.10;99.90;;;;;;5035424;28;20262;-85
2021/07/06 03:03:38;;;;;;;3.57;2.30;;;17.00;99.90;;;;;;5033837;28;20561;-85
2021/07/06 03:06:04;;;;;;;3.20;1.70;;;17.00;99.90;;;;;;5035296;28;20636;-85
2021/07/06 03:08:30;;;;;;;4.37;2.57;;;17.10;99.90;;;;;;5034043;28;20643;-84
2021/07/06 03:10:56;;;;;;;4.90;2.17;;;17.10;99.90;;;;;;5034131;28;20190;-86
2021/07/06 03:13:23;;;;;;;4.13;2.80;;;17.10;99.90;;;;;;5034995;28;20429;-85
2021/07/06 03:15:48;;;;;;;2.97;2.37;;;17.10;99.90;;;;;;5034594;28;20407;-85
2021/07/06 03:18:14;;;;;;;3.50;1.97;;;17.00;99.90;;;;;;5034236;28;20421;-86
2021/07/06 03:20:40;;;;;;;2.97;2.53;;;17.00;99.90;;;;;;5034982;28;20224;-84
2021/07/06 03:23:06;;;;;;;4.57;2.67;;;17.00;99.90;;;;;;5016415;28;20218;-87
2021/07/06 03:25:33;;;;;;;2.53;2.00;;;17.00;99.90;;;;;;5014038;28;20407;-85
2021/07/06 03:28:00;;;;;;;3.37;2.40;;;17.00;99.90;;;;;;5014406;28;20982;-85
2021/07/06 03:30:28;;;;;;;3.50;2.43;;;17.00;99.90;;;;;;5014612;28;20435;-85
2021/07/06 03:32:56;;;;;;;3.70;2.80;;;17.00;99.90;;;;;;5012973;28;20838;-85
2021/07/06 03:35:22;;;;;;;2.83;2.53;;;17.00;99.90;;;;;;5014609;28;20462;-86
2021/07/06 03:37:48;;;;;;;5.33;3.03;;;16.90;99.90;;;;;;5013295;28;20422;-85
2021/07/06 03:40:15;;;;;;;3.33;3.00;;;16.90;99.90;;;;;;5015026;28;20493;-85
2021/07/06 03:42:41;;;;;;;4.20;1.57;;;16.90;99.90;;;;;;5014934;28;20199;-86
2021/07/06 03:45:09;;;;;;;3.17;2.33;;;16.90;99.90;;;;;;5013712;28;20424;-85
2021/07/06 03:47:35;;;;;;;1.80;1.20;;;16.90;99.90;;;;;;5012841;28;20419;-86
2021/07/06 03:50:00;;;;;;;2.97;1.87;;;16.90;99.90;;;;;;5014769;28;20449;-86
2021/07/06 03:52:27;;;;;;;2.20;1.80;;;16.90;99.90;;;;;;5013573;28;20453;-88
2021/07/06 03:54:52;;;;;;;5.53;2.00;;;16.90;99.90;;;;;;5013519;28;20276;-85
2021/07/06 03:57:28;;;;;;;2.27;2.07;;;16.90;99.90;;;;;;5013487;28;20426;-85
2021/07/06 03:59:58;;;;;;;5.43;2.37;;;16.90;99.90;;;;;;5013338;28;20270;-86
2021/07/06 04:02:24;;;;;;;2.77;1.90;;;16.90;99.90;;;;;;5014322;28;20478;-85
2021/07/06 04:04:49;;;;;;;2.47;2.27;;;16.90;99.90;;;;;;5014548;28;20908;-86
2021/07/06 04:07:15;;;;;;;3.50;2.20;;;16.90;99.90;;;;;;5014489;28;20432;-85
2021/07/06 04:09:41;;;;;;;3.17;2.90;;;16.90;99.90;;;;;;5013230;28;20177;-85
2021/07/06 04:12:07;;;;;;;3.50;2.60;;;16.90;99.90;;;;;;5014381;28;20180;-85
2021/07/06 04:14:32;;;;;;;6.10;3.20;;;16.90;99.90;;;;;;5014362;28;20519;-86
2021/07/06 04:16:58;;;;;;;3.90;1.93;;;16.90;99.90;;;;;;5012766;28;20428;-85
2021/07/06 04:19:23;;;;;;;4.33;2.70;;;17.00;99.90;;;;;;5013179;28;20172;-86
2021/07/06 04:21:49;;;;;;;4.30;2.57;;;17.00;99.90;;;;;;5012978;28;20176;-85
2021/07/06 04:24:14;;;;;;;5.10;2.73;;;17.00;99.90;;;;;;5012988;28;20545;-84
2021/07/06 04:26:40;;;;;;;4.03;2.47;;;17.10;99.90;;;;;;5012801;28;20172;-85
2021/07/06 04:29:06;;;;;;;4.23;2.17;;;17.10;99.90;;;;;;5014134;28;20178;-85
2021/07/06 04:31:31;;;;;;;3.37;2.93;;;17.20;99.90;;;;;;5012440;28;20176;-85
2021/07/06 04:33:57;;;;;;;2.87;2.20;;;17.20;99.90;;;;;;5012803;28;20179;-86
2021/07/06 04:36:23;;;;;;;5.00;2.63;;;17.30;99.90;;;;;;5014053;28;20207;-87
2021/07/06 04:38:48;;;;;;;4.80;2.90;;;17.30;99.90;;;;;;5012777;28;20188;-85
2021/07/06 04:41:14;;;;;;;3.80;2.90;;;17.30;99.90;;;;;;5013947;28;20652;-87
2021/07/06 04:43:40;;;;;;;3.70;2.40;;;17.40;99.90;;;;;;5012519;28;20212;-84
2021/07/06 04:46:05;;;;;;;2.77;2.57;;;17.50;99.90;;;;;;5012553;28;20182;-84
2021/07/06 04:48:31;;;;;;;3.10;2.33;;;17.40;99.90;;;;;;5011990;28;20417;-85
2021/07/06 04:51:04;;;;;;;3.03;2.37;;;17.50;99.90;;;;;;5012289;28;20206;-86
2021/07/06 04:53:29;;;;;;;3.10;2.80;;;17.50;99.90;;;;;;5012512;28;20764;-85
2021/07/06 04:55:55;;;;;;;3.37;2.20;;;17.50;99.90;;;;;;5012215;28;20520;-84
2021/07/06 04:58:20;;;;;;;3.10;2.20;;;17.40;99.90;;;;;;5012401;28;20218;-85
2021/07/06 05:00:47;;;;;;;4.50;2.10;;;17.50;99.90;;;;;;5011638;28;20535;-84
2021/07/06 05:03:13;;;;;;;3.87;2.40;;;17.50;99.90;;;;;;5011837;28;20728;-85
2021/07/06 05:05:39;;;;;;;3.60;3.00;;;17.50;99.90;;;;;;5013526;28;20503;-86
2021/07/06 05:08:06;;;;;;;2.97;2.03;;;17.60;99.90;;;;;;5012164;28;20466;-86
2021/07/06 05:10:34;;;;;;;3.50;2.30;;;17.70;99.90;;;;;;5012099;28;20415;-85
2021/07/06 05:13:00;;;;;;;3.23;2.93;;;17.80;99.90;;;;;;5012087;28;20438;-85
2021/07/06 05:15:26;;;;;;;6.97;2.70;;;18.00;99.90;;;;;;5012170;28;20798;-86
2021/07/06 05:17:52;;;;;;;3.10;2.40;;;18.20;99.90;;;;;;5011818;28;20430;-85
2021/07/06 05:20:17;;;;;;;4.20;2.40;;;18.50;99.90;;;;;;5012103;28;20603;-85
2021/07/06 05:22:44;;;;;;;3.60;2.43;;;18.60;99.90;;;;;;5013309;28;20214;-87
2021/07/06 05:25:11;;;;;;;5.20;3.33;;;18.70;99.90;;;;;;5012016;28;20176;-86
2021/07/06 05:27:37;;;;;;;6.47;2.83;;;18.80;99.90;;;;;;5011880;28;20476;-85
2021/07/06 05:30:05;;;;;;;2.20;2.00;;;18.90;99.90;;;;;;5013285;28;20439;-85
2021/07/06 05:32:31;;;;;;;3.63;2.50;;;18.90;99.90;;;;;;5013037;28;20417;-85
2021/07/06 05:34:56;;;;;;;3.50;2.40;;;18.70;99.90;;;;;;5013355;28;20480;-86
2021/07/06 05:37:22;;;;;;;4.30;2.50;;;18.70;99.90;;;;;;5012058;28;20505;-86
2021/07/06 05:39:48;;;;;;;2.97;1.90;;;18.60;99.90;;;;;;5011745;28;20542;-86
2021/07/06 05:42:14;;;;;;;4.40;1.30;;;18.60;99.90;;;;;;5011811;28;20206;-86
2021/07/06 05:44:42;;;;;;;2.63;2.37;;;18.60;99.90;;;;;;5011895;28;20189;-85
2021/07/06 05:47:08;;;;;;;3.00;2.70;;;18.60;99.90;;;;;;5012830;28;20427;-85
2021/07/06 05:49:34;;;;;;;4.73;2.53;;;18.60;99.90;;;;;;5011937;28;20431;-85
2021/07/06 05:51:59;;;;;;;2.83;2.43;;;18.60;99.90;;;;;;5013030;28;20174;-85
2021/07/06 05:54:25;;;;;;;2.43;1.87;;;18.60;99.90;;;;;;5013136;28;20182;-86
2021/07/06 05:56:51;;;;;;;4.70;2.03;;;18.70;99.90;;;;;;5013040;28;20181;-85
2021/07/06 05:59:16;;;;;;;2.50;2.13;;;18.80;99.90;;;;;;5013066;28;20188;-89
2021/07/06 06:01:42;;;;;;;3.37;1.60;;;18.80;99.90;;;;;;5011399;28;20260;-85
2021/07/06 06:04:07;;;;;;;2.47;1.70;;;18.90;99.90;;;;;;5012878;28;20211;-84
2021/07/06 06:06:33;;;;;;;2.70;1.90;;;18.90;99.90;;;;;;5011705;28;20264;-85
2021/07/06 06:08:58;;;;;;;4.07;2.63;;;19.00;99.90;;;;;;5012846;28;20181;-89
2021/07/06 06:11:24;;;;;;;5.77;2.97;;;19.10;99.90;;;;;;5013697;28;20183;-85
2021/07/06 06:13:50;;;;;;;4.27;2.53;;;19.10;99.90;;;;;;5015486;28;20686;-86
2021/07/06 06:16:15;;;;;;;7.43;1.90;;;19.10;99.90;;;;;;5016269;28;20174;-85
2021/07/06 06:18:41;;;;;;;2.63;1.63;;;19.10;99.90;;;;;;5016635;28;20170;-85
2021/07/06 06:21:06;;;;;;;2.67;1.90;;;19.50;99.90;;;;;;5015272;28;20276;-86
2021/07/06 06:23:32;;;;;;;2.50;1.90;;;19.90;99.90;;;;;;5014984;28;20224;-85
2021/07/06 06:25:58;;;;;;;5.30;1.57;;;20.50;99.90;;;;;;5016398;28;20629;-85
2021/07/06 06:28:24;;;;;;;3.50;1.90;;;20.60;99.90;;;;;;5016190;28;20516;-86
2021/07/06 06:30:49;;;;;;;3.33;1.60;;;20.70;99.90;;;;;;5015051;28;20509;-84
2021/07/06 06:33:15;;;;;;;1.77;1.67;;;20.90;99.90;;;;;;5014694;28;20538;-86
2021/07/06 06:35:41;;;;;;;4.90;2.10;;;20.90;99.90;;;;;;5016236;28;20190;-85
2021/07/06 06:38:07;;;;;;;4.50;1.37;;;21.00;99.90;;;;;;5014976;28;20363;-86
2021/07/06 06:40:33;;;;;;;3.87;1.00;;;21.10;99.90;;;;;;5014913;28;20201;-85
2021/07/06 06:42:58;;;;;;;5.00;0.80;;;21.70;99.90;;;;;;5016041;28;20960;-85
2021/07/06 06:45:25;;;;;;;1.47;0.90;;;21.80;99.90;;;;;;5016147;28;20177;-86
2021/07/06 06:47:50;;;;;;;1.50;1.00;;;21.30;99.90;;;;;;5014332;28;20281;-86
2021/07/06 06:50:16;;;;;;;1.50;0.93;;;20.90;99.90;;;;;;5014821;28;20516;-86
2021/07/06 06:52:43;;;;;;;1.60;0.80;;;21.10;99.90;;;;;;5014747;28;20208;-84
2021/07/06 06:55:09;;;;;;;2.77;1.67;;;21.70;99.90;;;;;;5014598;28;20173;-84
2021/07/06 06:57:36;;;;;;;2.60;1.70;;;21.90;99.90;;;;;;5014516;28;20433;-86
2021/07/06 07:00:04;;;;;;;5.43;1.00;;;21.70;99.90;;;;;;5014581;28;20479;-85
2021/07/06 07:02:30;;;;;;;1.30;0.73;;;21.70;99.90;;;;;;5014201;28;20531;-86
2021/07/06 07:04:56;;;;;;;2.70;1.10;;;21.70;99.90;;;;;;5015803;28;20766;-85
2021/07/06 07:07:23;;;;;;;4.63;1.57;;;21.60;99.90;;;;;;5014488;28;20422;-85
2021/07/06 07:09:50;;;;;;;1.87;0.60;;;21.50;99.90;;;;;;5014532;28;20422;-85
2021/07/06 07:12:16;;;;;;;2.30;0.40;;;21.40;99.90;;;;;;5015442;28;20433;-86
2021/07/06 07:14:42;;;;;;;3.03;1.17;;;21.70;99.90;;;;;;5014188;28;20975;-86
2021/07/06 07:17:09;;;;;;;2.97;0.80;;;21.90;99.90;;;;;;5015321;28;20458;-86
2021/07/06 07:19:34;;;;;;;1.90;0.70;;;22.40;99.90;;;;;;5015541;28;20935;-86
2021/07/06 07:22:02;;;;;;;1.13;0.57;;;22.70;99.90;;;;;;5014766;28;20423;-85
2021/07/06 07:24:28;;;;;;;1.53;0.67;;;23.30;19.10;;;;;;5014006;28;20189;-86
2021/07/06 07:26:54;;;;;;;1.63;0.47;;;23.10;47.50;;;;;;5015088;28;20983;-86
2021/07/06 07:29:20;;;;;;;1.93;0.80;;;23.00;82.70;;;;;;5015303;28;20436;-86
2021/07/06 07:31:46;;;;;;;1.20;0.70;;;22.70;85.50;;;;;;5030085;28;20641;-85
2021/07/06 07:34:11;;;;;;;3.10;0.90;;;22.70;92.60;;;;;;5013948;28;20447;-85
2021/07/06 07:36:38;;;;;;;2.50;0.40;;;23.00;61.10;;;;;;5015016;28;20174;-87
2021/07/06 07:39:04;;;;;;;2.13;0.37;;;23.10;25.80;;;;;;5013816;28;20280;-86
2021/07/06 07:41:30;;;;;;;1.83;1.07;;;22.90;25.30;;;;;;5015046;28;20946;-85
2021/07/06 07:43:55;;;;;;;0.87;0.40;;;22.60;64.00;;;;;;5013742;28;20511;-86
2021/07/06 07:46:25;;;;;;;1.30;0.60;;;22.70;75.30;;;;;;5013484;28;20200;-86
2021/07/06 07:48:51;;;;;;;1.80;0.60;;;22.70;61.00;;;;;;5014982;28;20193;-86
2021/07/06 07:51:17;;;;;;;1.20;0.30;;;23.40;1.00;;;;;;5014867;28;20420;-86
2021/07/06 07:53:43;;;;;;;4.40;0.40;;;27.10;37.30;;;;;;5014723;28;20634;-87
2021/07/06 07:56:09;;;;;;;1.27;0.90;;;28.50;1.00;;;;;;5014789;28;20167;-87
2021/07/06 07:58:35;;;;;;;1.40;0.40;;;29.10;99.90;;;;;;5014774;28;20418;-86
2021/07/06 08:01:00;;;;;;;1.83;0.47;;;28.90;1.00;;;;;;5013032;28;20182;-86
2021/07/06 08:03:26;;;;;;;1.13;0.37;;;29.50;1.00;;;;;;5013310;28;20211;-87
2021/07/06 08:05:51;;;;;;;0.87;0.30;;;29.90;99.90;;;;;;5014591;28;20190;-86
2021/07/06 08:08:19;;;;;;;1.27;0.30;;;29.90;1.00;;;;;;5014513;28;20178;-86
2021/07/06 08:10:46;;;;;;;1.37;0.50;;;28.90;1.00;;;;;;5014517;28;20167;-87
2021/07/06 08:13:12;;;;;;;3.00;0.20;;;28.30;1.00;;;;;;5013152;28;20422;-86
2021/07/06 08:15:38;;;;;;;1.30;0.40;;;27.30;99.90;;;;;;5013168;28;20425;-86
2021/07/06 08:18:03;;;;;;;1.80;0.53;;;28.20;1.00;;;;;;5012823;28;20240;-87
2021/07/06 08:20:29;;;;;;;0.40;0.20;;;27.70;1.00;;;;;;5014337;28;20238;-87
2021/07/06 08:22:57;;;;;;;0.70;0.30;;;27.90;1.00;;;;;;5013013;28;20214;-88
2021/07/06 08:25:25;;;;;;;1.70;0.30;;;28.60;99.90;;;;;;5014281;28;20171;-88
2021/07/06 08:27:50;;;;;;;2.40;0.50;;;28.60;1.00;;;;;;5012823;28;20819;-86
2021/07/06 08:30:16;;;;;;;1.37;0.47;;;28.00;99.90;;;;;;5013014;28;20418;-85
2021/07/06 08:32:42;;;;;;;1.33;0.67;;;28.20;1.00;;;;;;5012616;28;20241;-86
2021/07/06 08:35:09;;;;;;;1.00;0.30;;;29.00;1.00;;;;;;5013992;28;20234;-85
2021/07/06 08:37:35;;;;;;;1.57;0.57;;;29.30;1.00;;;;;;5014034;28;20262;-85
2021/07/06 08:40:01;;;;;;;1.40;0.73;;;29.20;99.90;;;;;;5014133;28;20497;-87
2021/07/06 08:42:26;;;;;;;2.30;0.70;;;28.10;99.90;;;;;;5012663;28;20225;-86
2021/07/06 08:44:52;;;;;;;1.57;0.70;;;28.10;1.00;;;;;;5013903;28;20222;-86
2021/07/06 08:47:19;;;;;;;1.27;0.70;;;29.80;1.00;;;;;;5013827;28;20202;-86
2021/07/06 08:49:47;;;;;;;1.60;0.37;;;29.50;99.90;;;;;;5012492;28;20202;-88
2021/07/06 08:52:15;;;;;;;1.87;0.40;;;30.40;99.90;;;;;;5012408;28;20426;-86
2021/07/06 08:54:40;;;;;;;3.60;0.70;;;31.10;1.00;;;;;;5012415;28;20426;-87
2021/07/06 08:57:06;;;;;;;3.60;0.77;;;29.60;1.00;;;;;;5013772;28;20770;-86
2021/07/06 08:59:40;;;;;;;3.90;0.60;;;28.70;99.90;;;;;;5013755;28;20508;-87
2021/07/06 09:02:07;;;;;;;1.00;0.50;;;27.80;8.80;;;;;;5013170;28;20174;-86
2021/07/06 09:04:53;;;;;;;1.23;0.67;;;27.90;67.40;;;;;;5013556;28;20937;-86
2021/07/06 09:07:21;;;;;;;11.60;1.80;;;27.30;1.00;;;;;;5013662;28;20406;-87
2021/07/06 09:09:47;;;;;;;3.00;0.60;;;27.60;99.90;;;;;;5013633;28;20417;-87
2021/07/06 09:12:14;;;;;;;2.00;0.70;;;26.60;99.90;;;;;;5012276;28;20410;-85
2021/07/06 09:14:48;;;;;;;2.50;0.80;;;26.20;36.10;;;;;;5013493;28;20425;-84
2021/07/06 09:17:15;;;;;;;3.50;0.90;;;26.70;99.90;;;;;;5013164;28;20505;-85
2021/07/06 09:19:46;;;;;;;1.20;0.40;;;27.10;1.00;;;;;;5012265;28;20763;-86
2021/07/06 09:22:21;;;;;;;1.83;0.47;;;28.70;1.00;;;;;;5013334;28;20749;-86
2021/07/06 09:24:58;;;;;;;0.90;0.30;;;29.70;1.00;;;;;;5012079;28;20785;-87
2021/07/06 09:27:38;;;;;;;3.40;0.60;;;31.20;1.00;;;;;;5013077;28;20484;-87
2021/07/06 09:30:18;;;;;;;0.73;0.53;;;29.40;99.90;;;;;;5013348;28;20970;-85
2021/07/06 09:32:47;;;;;;;1.93;0.73;;;29.90;99.90;;;;;;5012997;28;20763;-85
2021/07/06 09:35:23;;;;;;;4.17;0.83;;;29.30;99.90;;;;;;5012027;28;20467;-87
2021/07/06 09:37:57;;;;;;;2.20;0.70;;;28.60;1.00;;;;;;5013253;28;20413;-84
2021/07/06 09:40:29;;;;;;;3.13;1.30;;;29.20;1.00;;;;;;5012019;28;20496;-86
2021/07/06 09:43:17;;;;;;;1.90;0.30;;;30.30;99.90;;;;;;5013060;28;21004;-85
2021/07/06 09:45:46;;;;;;;1.07;0.40;;;31.50;1.00;;;;;;5013773;28;20417;-87
2021/07/06 09:48:12;;;;;;;1.03;0.60;;;31.20;1.00;;;;;;5015965;28;20429;-87
2021/07/06 09:50:38;;;;;;;1.03;0.60;;;31.00;99.90;;;;;;5016128;28;20479;-86
2021/07/06 09:53:04;;;;;;;2.47;0.83;;;29.70;1.00;;;;;;5017128;28;20595;-85
2021/07/06 09:55:32;;;;;;;2.57;0.60;;;30.30;1.00;;;;;;5017147;28;20257;-85
2021/07/06 09:57:58;;;;;;;3.20;0.40;;;30.50;1.00;;;;;;5015719;28;20430;-86
2021/07/06 10:00:24;;;;;;;1.10;0.40;;;30.00;1.00;;;;;;5017032;28;20440;-86
2021/07/06 10:03:02;;;;;;;2.37;0.50;;;29.20;99.90;;;;;;5016568;28;20485;-86
2021/07/06 10:05:29;;;;;;;0.70;0.50;;;28.60;99.90;;;;;;5015759;28;20921;-87
2021/07/06 10:07:55;;;;;;;2.50;0.57;;;28.10;99.90;;;;;;5016755;28;20406;-87
2021/07/06 10:10:21;;;;;;;4.03;0.50;;;28.30;1.00;;;;;;5015544;28;20440;-86
2021/07/06 10:12:48;;;;;;;1.63;0.30;;;28.10;99.90;;;;;;5015465;28;20425;-85
2021/07/06 10:15:16;;;;;;;0.80;0.47;;;27.40;1.00;;;;;;5016691;28;20520;-84
2021/07/06 10:17:43;;;;;;;3.97;1.03;;;27.30;1.00;;;;;;5016462;28;20414;-87
2021/07/06 10:20:11;;;;;;;1.40;0.40;;;26.80;99.90;;;;;;5016665;28;20424;-85
2021/07/06 10:22:38;;;;;;;2.63;0.60;;;26.70;1.00;;;;;;5015213;28;20531;-84
2021/07/06 10:25:09;;;;;;;3.23;0.40;;;26.50;1.00;;;;;;5016455;28;20441;-85
2021/07/06 10:27:38;;;;;;;2.30;0.67;;;26.80;99.90;;;;;;5014981;28;20469;-87
2021/07/06 10:30:16;;;;;;;1.43;0.40;;;26.50;1.00;;;;;;5016370;28;20457;-84
2021/07/06 10:32:43;;;;;;;1.80;0.60;;;26.10;99.90;;;;;;5016173;28;20432;-86
2021/07/06 10:35:12;;;;;;;3.43;0.80;;;26.30;1.00;;;;;;5014948;28;20457;-85
2021/07/06 10:37:38;;;;;;;1.43;0.50;;;26.30;99.90;;;;;;5016444;28;20445;-85
2021/07/06 10:40:15;;;;;;;1.90;0.70;;;26.30;99.90;;;;;;5014957;28;20418;-85
2021/07/06 10:42:41;;;;;;;1.60;0.97;;;26.00;99.90;;;;;;5016231;28;20552;-87
2021/07/06 10:45:20;;;;;;;2.80;0.97;;;26.10;99.90;;;;;;5016306;28;20410;-85
2021/07/06 10:47:48;;;;;;;1.73;0.87;;;25.90;99.90;;;;;;5016003;28;20410;-85
2021/07/06 10:50:40;;;;;;;2.00;0.60;;;25.40;1.00;;;;;;5016103;28;20413;-85
2021/07/06 10:53:20;;;;;;;0.97;0.40;;;25.50;99.90;;;;;;5013962;28;20453;-85
2021/07/06 10:56:00;;;;;;;1.47;0.60;;;25.70;99.90;;;;;;5014621;28;20430;-84
2021/07/06 10:58:51;;;;;;;2.67;0.80;;;25.70;99.90;;;;;;5015276;28;20406;-88
2021/07/06 11:01:35;;;;;;;2.97;0.87;;;25.50;99.90;;;;;;5015537;28;20413;-87
2021/07/06 11:04:08;;;;;;;2.30;0.73;;;25.30;1.00;;;;;;5015622;28;20472;-85
2021/07/06 11:06:46;;;;;;;3.17;0.80;;;25.30;1.00;;;;;;5015860;28;20611;-85
2021/07/06 11:09:18;;;;;;;1.17;0.57;;;25.10;1.00;;;;;;5014449;28;20409;-87
2021/07/06 11:11:43;;;;;;;5.07;1.47;;;25.00;99.90;;;;;;5015704;28;20420;-85
2021/07/06 11:14:26;;;;;;;3.43;0.90;;;24.90;1.00;;;;;;5014357;28;20921;-84
2021/07/06 11:16:56;;;;;;;0.80;0.47;;;24.90;1.00;;;;;;5014017;28;20173;-84
2021/07/06 11:19:36;;;;;;;2.83;1.40;;;24.90;99.90;;;;;;5014284;28;20792;-84
2021/07/06 11:22:15;;;;;;;3.63;0.80;;;24.80;99.90;;;;;;5015432;28;20421;-84
2021/07/06 11:24:42;;;;;;;1.83;0.37;;;24.90;1.00;;;;;;5015395;28;20420;-85
2021/07/06 11:27:11;;;;;;;3.53;0.67;;;24.70;1.00;;;;;;5015158;28;20536;-83
2021/07/06 11:29:38;;;;;;;2.00;0.63;;;24.60;1.00;;;;;;5015238;28;20404;-86
2021/07/06 11:32:07;;;;;;;1.77;0.40;;;24.50;1.00;;;;;;5015222;28;20422;-84
2021/07/06 11:34:37;;;;;;;0.90;0.70;;;24.60;1.00;;;;;;5015799;28;20404;-85
2021/07/06 11:37:11;;;;;;;0.90;0.20;;;24.50;1.00;;;;;;5015256;28;20435;-85
2021/07/06 11:39:37;;;;;;;1.10;0.50;;;24.40;1.00;;;;;;5015049;28;20958;-86
2021/07/06 11:42:06;;;;;;;3.40;0.60;;;24.50;1.00;;;;;;5013694;28;20430;-85
2021/07/06 11:44:32;;;;;;;1.70;0.30;;;24.50;1.00;;;;;;5013944;28;20185;-85
2021/07/06 11:47:12;;;;;;;1.83;0.30;;;24.40;1.00;;;;;;5015014;28;20409;-85
2021/07/06 11:49:39;;;;;;;0.77;0.63;;;24.30;1.00;;;;;;5015184;28;20477;-86
2021/07/06 11:52:05;;;;;;;2.17;0.43;;;24.30;1.00;;;;;;5013737;28;20451;-85
2021/07/06 11:54:31;;;;;;;3.80;0.97;;;24.10;1.00;;;;;;5015010;28;20425;-84
2021/07/06 11:57:08;;;;;;;1.23;0.57;;;24.00;1.00;;;;;;5015045;28;20412;-86
2021/07/06 11:59:35;;;;;;;2.10;0.70;;;24.00;1.00;;;;;;5014865;28;20786;-85
2021/07/06 12:02:09;;;;;;;1.00;0.70;;;24.10;1.00;;;;;;5014505;28;20429;-83
2021/07/06 12:04:36;;;;;;;3.10;0.77;;;24.00;1.00;;;;;;5014965;28;20828;-85
2021/07/06 12:07:03;;;;;;;3.63;1.37;;;24.00;1.00;;;;;;5013464;28;20830;-84
2021/07/06 12:09:29;;;;;;;1.70;1.60;;;23.80;1.00;;;;;;5013389;28;20482;-85
2021/07/06 12:12:15;;;;;;;1.57;0.60;;;23.80;1.00;;;;;;5020048;28;20424;-86
2021/07/06 12:14:45;;;;;;;2.37;0.67;;;23.80;1.00;;;;;;5014633;28;20177;-85
2021/07/06 12:17:12;;;;;;;1.13;0.30;;;23.80;1.00;;;;;;5014313;28;20415;-85
2021/07/06 12:19:37;;;;;;;2.90;0.87;;;23.60;1.00;;;;;;5013658;28;20427;-86
2021/07/06 12:22:03;;;;;;;1.63;0.70;;;23.30;18.00;;;;;;5013835;28;20772;-85
2021/07/06 12:24:31;;;;;;;2.40;0.90;;;23.00;89.80;;;;;;5013703;28;20737;-84
2021/07/06 12:26:57;;;;;;;1.43;0.37;;;22.80;99.90;;;;;;5012848;28;20472;-84
2021/07/06 12:29:34;;;;;;;1.43;0.33;;;22.50;99.90;;;;;;5013165;28;20424;-84
2021/07/06 12:32:02;;;;;;;4.57;0.80;;;22.40;99.90;;;;;;5012744;28;20422;-85
2021/07/06 12:34:37;;;;;;;0.97;0.30;;;22.40;62.30;;;;;;5012842;28;20787;-86
2021/07/06 12:37:04;;;;;;;2.27;0.60;;;22.40;55.20;;;;;;5012996;28;20415;-85
2021/07/06 12:39:33;;;;;;;1.20;0.57;;;22.50;45.00;;;;;;5013000;28;20454;-86
2021/07/06 12:42:02;;;;;;;2.03;0.70;;;22.30;36.20;;;;;;5013227;28;20423;-86
2021/07/06 12:44:31;;;;;;;0.90;0.30;;;22.30;63.80;;;;;;5013696;28;20799;-87
2021/07/06 12:47:31;;;;;;;0.73;0.33;;;22.30;50.90;;;;;;5014223;28;20418;-87
2021/07/06 12:50:20;;;;;;;3.10;0.30;;;22.20;79.80;;;;;;5006066;28;20477;-86
2021/07/06 12:52:57;;;;;;;12.20;2.07;;;22.20;61.10;;;;;;5012732;28;20810;-87